createdAt,value
2023-04-02T00:01:02.136Z,57.81
2023-04-02T00:16:07.571Z,57.06
2023-04-02T00:31:11.609Z,58.06
2023-04-02T00:46:22.246Z,57.56
2023-04-02T01:01:28.716Z,56.97
2023-04-02T01:16:31.153Z,55.68
2023-04-02T01:31:34.582Z,55.46
2023-04-02T01:46:41.601Z,55.13
2023-04-02T02:01:59.253Z,54.54
2023-04-02T02:17:04.365Z,54.87
2023-04-02T02:32:07.613Z,55.21
2023-04-02T02:47:15.098Z,54.80
2023-04-02T03:02:17.492Z,55.37
2023-04-02T03:17:35.847Z,55.68
2023-04-02T03:32:41.133Z,55.22
2023-04-02T03:48:01.355Z,54.88
2023-04-02T04:03:36.249Z,56.70
2023-04-02T04:18:44.067Z,54.29
2023-04-02T04:33:50.841Z,55.03
2023-04-02T04:49:02.078Z,62.87
2023-04-02T05:04:23.011Z,59.39
2023-04-02T05:19:46.642Z,61.75
2023-04-02T05:34:53.731Z,62.62
2023-04-02T05:50:01.253Z,62.18
2023-04-02T06:05:17.127Z,61.67
2023-04-02T06:20:21.414Z,57.47
2023-04-02T06:35:23.694Z,54.61
2023-04-02T06:51:07.257Z,49.17
2023-04-02T07:06:15.702Z,45.99
2023-04-02T07:21:17.715Z,39.16
2023-04-02T07:36:23.191Z,36.41
2023-04-02T07:51:26.760Z,36.39
2023-04-02T08:06:29.412Z,37.61
2023-04-02T08:21:31.780Z,39.46
2023-04-02T08:36:37.876Z,42.05
2023-04-02T08:51:40.316Z,39.27
2023-04-02T09:06:43.976Z,36.52
2023-04-02T09:22:01.983Z,34.62
2023-04-02T09:37:15.532Z,35.53
2023-04-02T09:52:28.801Z,35.78
2023-04-02T10:07:38.579Z,34.88
2023-04-02T10:22:46.730Z,33.31
2023-04-02T10:38:07.340Z,34.23
2023-04-02T10:53:17.215Z,37.97
2023-04-02T11:08:24.102Z,38.43
2023-04-02T11:23:32.757Z,40.38
2023-04-02T11:38:46.595Z,38.42
2023-04-02T11:53:50.318Z,38.76
2023-04-02T12:09:06.030Z,38.86
2023-04-02T12:24:19.729Z,37.28
2023-04-02T12:39:22.286Z,36.59
2023-04-02T12:54:24.510Z,35.31
2023-04-02T13:09:31.630Z,35.38
2023-04-02T13:24:34.333Z,35.95
2023-04-02T13:39:36.888Z,36.81
2023-04-02T13:54:49.008Z,35.89
2023-04-02T14:10:04.348Z,36.13
2023-04-02T14:25:23.378Z,35.63
2023-04-02T14:40:40.258Z,36.42
2023-04-02T14:55:49.469Z,36.49
2023-04-02T15:11:16.526Z,35.44
2023-04-02T15:26:44.587Z,34.48
2023-04-02T15:42:18.868Z,34.94
2023-04-02T15:57:32.485Z,34.82
2023-04-02T16:12:37.238Z,34.26
2023-04-02T16:27:45.467Z,36.27
2023-04-02T16:43:11.679Z,37.33
2023-04-02T16:58:19.420Z,38.28
2023-04-02T17:13:41.791Z,39.10
2023-04-02T17:28:47.912Z,39.58
2023-04-02T17:43:58.666Z,40.48
2023-04-02T18:07:02.026Z,40.94
2023-04-02T18:22:33.195Z,42.67
2023-04-02T18:37:56.516Z,44.34
2023-04-02T18:52:58.598Z,44.15
2023-04-02T19:08:10.407Z,44.65
2023-04-02T19:23:31.085Z,45.21
2023-04-02T19:39:02.416Z,44.90
2023-04-02T19:54:04.647Z,45.82
2023-04-02T20:09:08.333Z,48.62
2023-04-02T20:24:10.281Z,49.41
2023-04-02T20:39:18.098Z,50.39
2023-04-02T20:54:20.021Z,51.85
2023-04-02T21:09:22.097Z,52.04
2023-04-02T21:24:24.062Z,52.75
2023-04-02T21:39:26.037Z,53.96
2023-04-02T21:54:28.043Z,53.66
2023-04-02T22:09:29.941Z,54.15
2023-04-02T22:24:31.867Z,55.33
2023-04-02T22:39:33.781Z,56.03
2023-04-02T22:54:35.846Z,57.25
2023-04-02T23:09:37.811Z,57.40
2023-04-02T23:24:39.701Z,58.11
2023-04-02T23:39:41.747Z,59.30
2023-04-02T23:54:43.701Z,58.74
